Buoy 46930

sailwx.info

Track history (hours):
 
Tides and Currents Weather Stations Pressure Air Temp Water Temp Dewpoint Dewpoint Depression Visibility Wind Speed Wind Dir Waves Ship Positions

Drifting buoy 46930

Last reported at 2016-Dec-10 09:00 UTC. Time now 2016-Dec-10 18:35 UTC.
Position N 19°06' E 175°22'.

Date/timePositionNaut miles runAvg speedWind from/ knotsBaromVisibWave heightAir tempDewpointWater temp
2016-Dec-10 09:00N 19°06' E 175°22'0 0.0
2016-Dec-10 08:00N 19°06' E 175°22'1 0.6
2016-Dec-10 07:00N 19°06' E 175°21'1 0.8
2016-Dec-10 06:00N 19°07' E 175°22'4 0.4
2016-Dec-09 20:00N 19°09' E 175°19'0 0.0
2016-Dec-09 19:00N 19°09' E 175°19'0 0.0
2016-Dec-09 18:00N 19°09' E 175°19'1 0.3
2016-Dec-09 16:00N 19°09' E 175°19'3 0.5
2016-Dec-09 10:00N 19°12' E 175°19'1 0.6
2016-Dec-09 09:00N 19°13' E 175°19'1 0.6
2016-Dec-09 08:00N 19°13' E 175°19'1 1.1
2016-Dec-09 07:00N 19°13' E 175°20'1 0.4
2016-Dec-09 05:00N 19°14' E 175°21'0 0.0
2016-Dec-09 04:00N 19°14' E 175°21'2 0.4
2016-Dec-08 22:00N 19°16' E 175°23'1 0.4
2016-Dec-08 20:00N 19°16' E 175°23'2 0.4
2016-Dec-08 16:00N 19°17' E 175°25'2 0.3
2016-Dec-08 10:00N 19°19' E 175°26'2 0.9
2016-Dec-08 08:00N 19°19' E 175°28'0 0.0
2016-Dec-08 07:00N 19°19' E 175°28'1 0.4
2016-Dec-08 05:00N 19°20' E 175°28'6 0.6
2016-Dec-07 18:00N 19°24' E 175°33'1 0.8
2016-Dec-07 17:00N 19°25' E 175°34'1 0.8
2016-Dec-07 16:00N 19°25' E 175°34'3 0.4
2016-Dec-07 09:00N 19°27' E 175°37'1 0.8
2016-Dec-07 08:00N 19°28' E 175°37'1 0.8
2016-Dec-07 07:00N 19°27' E 175°38'7 0.8
2016-Dec-06 22:00N 19°31' E 175°44'2 1.8
2016-Dec-06 21:00N 19°33' E 175°44'0 0.0
2016-Dec-06 19:00N 19°33' E 175°44'1 0.8
2016-Dec-06 18:00N 19°34' E 175°44'10 0.7
2016-Dec-06 04:00N 19°41' E 175°52'3 0.7
2016-Dec-06 00:00N 19°43' E 175°54'4 0.7
2016-Dec-05 19:00N 19°45' E 175°57'5 0.5
2016-Dec-05 09:00N 19°48' E 176°02'1 0.8
2016-Dec-05 08:00N 19°49' E 176°02'1 0.6
2016-Dec-05 07:00N 19°49' E 176°03'1 0.4
2016-Dec-05 05:00N 19°49' E 176°04'1 0.8
2016-Dec-05 04:00N 19°50' E 176°04'2 0.9
2016-Dec-05 02:00N 19°50' E 176°06'1 0.6
2016-Dec-05 00:00N 19°50' E 176°07'2 0.8
2016-Dec-04 22:00N 19°52' E 176°08'1 0.4
2016-Dec-04 20:00N 19°52' E 176°09'1 0.4
2016-Dec-04 17:00N 19°53' E 176°10'1 1.3
2016-Dec-04 16:00N 19°53' E 176°11'4 0.6
2016-Dec-04 10:00N 19°55' E 176°15'1 0.6
2016-Dec-04 09:00N 19°56' E 176°15'1 1.3
2016-Dec-04 08:00N 19°56' E 176°16'1 1.3
2016-Dec-04 07:00N 19°58' E 176°17'2 0.8
2016-Dec-04 05:00N 19°59' E 176°18'1 1.3
2016-Dec-04 04:00N 20°00' E 176°19'1 0.6
2016-Dec-04 02:00N 20°01' E 176°20'2 0.6
2016-Dec-03 22:00N 20°01' E 176°22'2 0.6
2016-Dec-03 18:00N 20°01' E 176°25'0 0.0
2016-Dec-03 17:00N 20°01' E 176°25'6 0.9
2016-Dec-03 10:00N 20°03' E 176°31'2 1.2
2016-Dec-03 08:00N 20°05' E 176°32'2 1.0
2016-Dec-03 06:00N 20°06' E 176°34'1 0.6
2016-Dec-03 05:00N 20°06' E 176°35'1 1.2
2016-Dec-03 04:00N 20°07' E 176°35'5 0.6
2016-Dec-02 19:00N 20°11' E 176°38'1 0.3
2016-Dec-02 17:00N 20°11' E 176°39'0 0.0
2016-Dec-02 16:00N 20°11' E 176°39'2 1.6
2016-Dec-02 15:00N 20°13' E 176°40'4 0.8
2016-Dec-02 10:00N 20°16' E 176°43'1 0.6
2016-Dec-02 08:00N 20°16' E 176°44'1 0.8
2016-Dec-02 07:00N 20°17' E 176°45'1 0.4
2016-Dec-02 05:00N 20°17' E 176°46'3 0.5
2016-Dec-01 22:00N 20°20' E 176°47'1 0.8
2016-Dec-01 21:00N 20°21' E 176°48'1 0.3
2016-Dec-01 19:00N 20°20' E 176°48'1 0.6
2016-Dec-01 18:00N 20°20' E 176°49'0 0.0
2016-Dec-01 17:00N 20°20' E 176°49'4 0.4
2016-Dec-01 07:00N 20°22' E 176°52'0 0.0
2016-Dec-01 06:00N 20°22' E 176°52'1 1.1
2016-Dec-01 05:00N 20°22' E 176°53'4 0.3
2016-Nov-30 17:00N 20°25' E 176°56'0 0.0
2016-Nov-30 16:00N 20°25' E 176°56'1 0.1
2016-Nov-30 09:00N 20°26' E 176°56'  
Track history (hours):
 
Tides and Currents Weather Stations Pressure Air Temp Water Temp Dewpoint Dewpoint Depression Visibility Wind Speed Wind Dir Waves Ship Positions

Drifting buoy 46930

Last reported at 2016-Dec-10 09:00 UTC. Time now 2016-Dec-10 18:35 UTC.
Position N 19°06' E 175°22'.

Date/timePositionNaut miles runAvg speedWind from/ knotsBaromVisibWave heightAir tempDewpointWater temp
2016-Dec-10 09:00N 19°06' E 175°22'0 0.0
2016-Dec-10 08:00N 19°06' E 175°22'1 0.6
2016-Dec-10 07:00N 19°06' E 175°21'1 0.8
2016-Dec-10 06:00N 19°07' E 175°22'4 0.4
2016-Dec-09 20:00N 19°09' E 175°19'0 0.0
2016-Dec-09 19:00N 19°09' E 175°19'0 0.0
2016-Dec-09 18:00N 19°09' E 175°19'1 0.3
2016-Dec-09 16:00N 19°09' E 175°19'3 0.5
2016-Dec-09 10:00N 19°12' E 175°19'1 0.6
2016-Dec-09 09:00N 19°13' E 175°19'1 0.6
2016-Dec-09 08:00N 19°13' E 175°19'1 1.1
2016-Dec-09 07:00N 19°13' E 175°20'1 0.4
2016-Dec-09 05:00N 19°14' E 175°21'0 0.0
2016-Dec-09 04:00N 19°14' E 175°21'2 0.4
2016-Dec-08 22:00N 19°16' E 175°23'1 0.4
2016-Dec-08 20:00N 19°16' E 175°23'2 0.4
2016-Dec-08 16:00N 19°17' E 175°25'2 0.3
2016-Dec-08 10:00N 19°19' E 175°26'2 0.9
2016-Dec-08 08:00N 19°19' E 175°28'0 0.0
2016-Dec-08 07:00N 19°19' E 175°28'1 0.4
2016-Dec-08 05:00N 19°20' E 175°28'6 0.6
2016-Dec-07 18:00N 19°24' E 175°33'1 0.8
2016-Dec-07 17:00N 19°25' E 175°34'1 0.8
2016-Dec-07 16:00N 19°25' E 175°34'3 0.4
2016-Dec-07 09:00N 19°27' E 175°37'1 0.8
2016-Dec-07 08:00N 19°28' E 175°37'1 0.8
2016-Dec-07 07:00N 19°27' E 175°38'7 0.8
2016-Dec-06 22:00N 19°31' E 175°44'2 1.8
2016-Dec-06 21:00N 19°33' E 175°44'0 0.0
2016-Dec-06 19:00N 19°33' E 175°44'1 0.8
2016-Dec-06 18:00N 19°34' E 175°44'10 0.7
2016-Dec-06 04:00N 19°41' E 175°52'3 0.7
2016-Dec-06 00:00N 19°43' E 175°54'4 0.7
2016-Dec-05 19:00N 19°45' E 175°57'5 0.5
2016-Dec-05 09:00N 19°48' E 176°02'1 0.8
2016-Dec-05 08:00N 19°49' E 176°02'1 0.6
2016-Dec-05 07:00N 19°49' E 176°03'1 0.4
2016-Dec-05 05:00N 19°49' E 176°04'1 0.8
2016-Dec-05 04:00N 19°50' E 176°04'2 0.9
2016-Dec-05 02:00N 19°50' E 176°06'1 0.6
2016-Dec-05 00:00N 19°50' E 176°07'2 0.8
2016-Dec-04 22:00N 19°52' E 176°08'1 0.4
2016-Dec-04 20:00N 19°52' E 176°09'1 0.4
2016-Dec-04 17:00N 19°53' E 176°10'1 1.3
2016-Dec-04 16:00N 19°53' E 176°11'4 0.6
2016-Dec-04 10:00N 19°55' E 176°15'1 0.6
2016-Dec-04 09:00N 19°56' E 176°15'1 1.3
2016-Dec-04 08:00N 19°56' E 176°16'1 1.3
2016-Dec-04 07:00N 19°58' E 176°17'2 0.8
2016-Dec-04 05:00N 19°59' E 176°18'1 1.3
2016-Dec-04 04:00N 20°00' E 176°19'1 0.6
2016-Dec-04 02:00N 20°01' E 176°20'2 0.6
2016-Dec-03 22:00N 20°01' E 176°22'2 0.6
2016-Dec-03 18:00N 20°01' E 176°25'0 0.0
2016-Dec-03 17:00N 20°01' E 176°25'6 0.9
2016-Dec-03 10:00N 20°03' E 176°31'2 1.2
2016-Dec-03 08:00N 20°05' E 176°32'2 1.0
2016-Dec-03 06:00N 20°06' E 176°34'1 0.6
2016-Dec-03 05:00N 20°06' E 176°35'1 1.2
2016-Dec-03 04:00N 20°07' E 176°35'5 0.6
2016-Dec-02 19:00N 20°11' E 176°38'1 0.3
2016-Dec-02 17:00N 20°11' E 176°39'0 0.0
2016-Dec-02 16:00N 20°11' E 176°39'2 1.6
2016-Dec-02 15:00N 20°13' E 176°40'4 0.8
2016-Dec-02 10:00N 20°16' E 176°43'1 0.6
2016-Dec-02 08:00N 20°16' E 176°44'1 0.8
2016-Dec-02 07:00N 20°17' E 176°45'1 0.4
2016-Dec-02 05:00N 20°17' E 176°46'3 0.5
2016-Dec-01 22:00N 20°20' E 176°47'1 0.8
2016-Dec-01 21:00N 20°21' E 176°48'1 0.3
2016-Dec-01 19:00N 20°20' E 176°48'1 0.6
2016-Dec-01 18:00N 20°20' E 176°49'0 0.0
2016-Dec-01 17:00N 20°20' E 176°49'4 0.4
2016-Dec-01 07:00N 20°22' E 176°52'0 0.0
2016-Dec-01 06:00N 20°22' E 176°52'1 1.1
2016-Dec-01 05:00N 20°22' E 176°53'4 0.3
2016-Nov-30 17:00N 20°25' E 176°56'0 0.0
2016-Nov-30 16:00N 20°25' E 176°56'1 0.1
2016-Nov-30 09:00N 20°26' E 176°56'  

Dump ship's entire track history